Meteorological Aerodrome Report (METAR)

METAR

METAR for:NVSC (Vanua Lava/Sola Airport)
Text:NVSC 250600Z 00000KT 9999 FEW030 32/25 Q1006 RMK NIL
Temperature: 32.0°C ( 90°F)
Dewpoint: 25.0°C ( 77°F) [RH = 67%]
Pressure (altimeter):29.70 inches Hg (1006.0 mb)
Winds:calm
Visibility:6 or more sm (10+ km)
Ceiling:at least 12,000 feet AGL
Clouds: few clouds at 3000 feet AGL

METAR

METAR for:NVSG (Ambae/Longana Airport)
Text:NVSG 250600Z 00000KT 9999 FEW018 BKN020 OVC040 27/26 Q1007 RMK NIL
Temperature: 27.0°C ( 81°F)
Dewpoint: 26.0°C ( 79°F) [RH = 94%]
Pressure (altimeter):29.73 inches Hg (1007.0 mb)
Winds:calm
Visibility:6 or more sm (10+ km)
Ceiling:2000 feet AGL
Clouds: few clouds at 1800 feet AGL, broken clouds at 2000 feet AGL, overcast cloud deck at 4000 feet AGL

METAR

METAR for:NVSS (Santo/Pekoa International Airport)
Text:NVSS 250600Z 08004KT 9999 FEW025 FEW028CB BKN120 30/25 Q1006 RMK NIL
Temperature: 30.0°C ( 86°F)
Dewpoint: 25.0°C ( 77°F) [RH = 75%]
Pressure (altimeter):29.70 inches Hg (1006.0 mb)
Winds:from the E (80 degrees) at 5 MPH (4 knots; 2.1 m/s)
Visibility:6 or more sm (10+ km)
Ceiling:12000 feet AGL
Clouds: few clouds at 2500 feet AGL, few clouds at 2800 feet AGL, broken clouds at 12000 feet AGL

METAR

METAR for:NVSL (Malekula/Lamap Airport)
Text:NVSL 250600Z 24005KT 9999 BKN020 FEW025CB 26/24 Q1006 RMK NIL
Temperature: 26.0°C ( 79°F)
Dewpoint: 24.0°C ( 75°F) [RH = 89%]
Pressure (altimeter):29.70 inches Hg (1006.0 mb)
Winds:from the WSW (240 degrees) at 6 MPH (5 knots; 2.6 m/s)
Visibility:6 or more sm (10+ km)
Ceiling:2000 feet AGL
Clouds: broken clouds at 2000 feet AGL, few clouds at 2500 feet AGL

METAR

METAR for:NVSP (Malekula/Norsup Airport) (Norsup Arpt, --, NV)
Text:NVSP (Malekula/Norsup Airport) 250600Z AUTO 12003KT //// // NCD 30/25 Q1005 RMK NIL
Temperature: 30.0°C ( 86°F)
Dewpoint: 25.0°C ( 77°F) [RH = 75%]
Pressure (altimeter):29.68 inches Hg (1005.0 mb)
Winds:from the ESE (120 degrees) at 3 MPH (3 knots; 1.5 m/s)
Ceiling:at least 12,000 feet AGL
Clouds:sky clear below 12,000 feet AGL

METAR

METAR for:NVVV (Efate/Bauerfield International Airport)
Text:NVVV 250700Z 10007KT 9999 BKN020 27/24 Q1007 RMK NIL
Temperature: 27.0°C ( 81°F)
Dewpoint: 24.0°C ( 75°F) [RH = 84%]
Pressure (altimeter):29.73 inches Hg (1007.0 mb)
Winds:from the E (100 degrees) at 8 MPH (7 knots; 3.6 m/s)
Visibility:6 or more sm (10+ km)
Ceiling:2000 feet AGL
Clouds: broken clouds at 2000 feet AGL

METAR

METAR for:NVVW (Tanna/WhiteGrass International Airport)
Text:NVVW 250600Z 09006KT 9999 SCT020 BKN110 30/24 Q1007 RMK NIL
Temperature: 30.0°C ( 86°F)
Dewpoint: 24.0°C ( 75°F) [RH = 70%]
Pressure (altimeter):29.73 inches Hg (1007.0 mb)
Winds:from the E (90 degrees) at 7 MPH (6 knots; 3.1 m/s)
Visibility:6 or more sm (10+ km)
Ceiling:11000 feet AGL
Clouds: scattered clouds at 2000 feet AGL, broken clouds at 11000 feet AGL

METAR

METAR for:NVVA (Aneityum/Anelcahuat Airport)
Text:NVVA 250600Z 13007KT 9999 SCT020 FEW028CB 31/26 Q1008 RMK NIL
Temperature: 31.0°C ( 88°F)
Dewpoint: 26.0°C ( 79°F) [RH = 75%]
Pressure (altimeter):29.76 inches Hg (1008.0 mb)
Winds:from the SE (130 degrees) at 8 MPH (7 knots; 3.6 m/s)
Visibility:6 or more sm (10+ km)
Ceiling:at least 12,000 feet AGL
Clouds: scattered clouds at 2000 feet AGL, few clouds at 2800 feet AGL

METAR

ADDS METAR Data INFO
IDs: Format: Raw Decoded Include TAF

Data at: 0801 UTC 25 Feb 2018

NVSC 250600Z 00000KT 9999 FEW030 32/25 Q1006 RMK NIL
NVSG 250600Z 00000KT 9999 FEW018 BKN020 OVC040 27/26 Q1007 RMK NIL
NVSS 250600Z 08004KT 9999 FEW025 FEW028CB BKN120 30/25 Q1006 RMK NIL
NVSL 250600Z 24005KT 9999 BKN020 FEW025CB 26/24 Q1006 RMK NIL
NVSP 250600Z AUTO 12003KT //// // NCD 30/25 Q1005 RMK NIL
NVVV 250700Z 10007KT 9999 BKN020 27/24 Q1007 RMK NIL
NVVW 250600Z 09006KT 9999 SCT020 BKN110 30/24 Q1007 RMK NIL
NVVA 250600Z 13007KT 9999 SCT020 FEW028CB 31/26 Q1008 RMK NIL